Aviation Digital Data Service (ADDS)

Output produced by METARs form (1110 UTC 24 April 2017)
found at http://www.aviationweather.gov/adds/metars/
 
TAF MSLP 240925Z 2412/2512 05006KT 9999 SCT070 TX34/2418Z TN20/2511Z 
     FM241800 22012KT 9999 FEW037 
     PROB40 
     TEMPO 2500/2504 09008KT 7000 SHRA SCT023 FEW040CB
       
TAF MSSS 240925Z 2412/2512 33004KT 9999 SCT040 TX32/2419Z TN19/2519Z 
     FM241800 18008KT 9999 SCT043 
     TEMPO 2500/2504 34005KT 7000 SHRA SCT027 FEW040CB